createdAt,value
2022-07-25T00:00:19.732Z,7.00
2022-07-25T00:02:48.033Z,6.40
2022-07-25T00:05:17.856Z,6.90
2022-07-25T00:07:45.762Z,6.57
2022-07-25T00:10:13.786Z,7.27
2022-07-25T00:12:41.769Z,7.40
2022-07-25T00:15:10.645Z,6.90
2022-07-25T00:17:38.965Z,6.63
2022-07-25T00:20:08.341Z,6.83
2022-07-25T00:22:37.592Z,6.70
2022-07-25T00:25:06.072Z,6.53
2022-07-25T00:27:33.945Z,7.10
2022-07-25T00:30:01.876Z,7.07
2022-07-25T00:32:29.823Z,6.67
2022-07-25T00:34:57.745Z,6.23
2022-07-25T00:37:25.648Z,6.67
2022-07-25T00:39:54.947Z,6.10
2022-07-25T00:42:24.150Z,6.50
2022-07-25T00:44:52.368Z,6.13
2022-07-25T00:47:20.362Z,6.23
2022-07-25T00:49:48.704Z,6.70
2022-07-25T00:52:16.721Z,6.70
2022-07-25T00:54:44.712Z,6.63
2022-07-25T00:57:14.335Z,6.80
2022-07-25T00:59:42.322Z,6.30
2022-07-25T01:02:10.279Z,6.80
2022-07-25T01:04:38.350Z,6.60
2022-07-25T01:07:06.907Z,6.60
2022-07-25T01:09:35.108Z,7.60
2022-07-25T01:12:03.001Z,7.03
2022-07-25T01:14:33.043Z,7.47
2022-07-25T01:17:01.123Z,6.63
2022-07-25T01:19:29.049Z,6.40
2022-07-25T01:21:58.384Z,7.13
2022-07-25T01:24:26.414Z,6.73
2022-07-25T01:26:54.335Z,6.83
2022-07-25T01:29:22.313Z,7.20
2022-07-25T01:31:50.259Z,7.10
2022-07-25T01:34:18.228Z,6.80
2022-07-25T01:36:46.252Z,7.17
2022-07-25T01:39:15.530Z,7.10
2022-07-25T01:41:43.495Z,7.07
2022-07-25T01:44:11.429Z,7.30
2022-07-25T01:46:39.393Z,6.50
2022-07-25T01:49:07.481Z,6.90
2022-07-25T01:51:35.477Z,6.77
2022-07-25T01:54:03.778Z,6.83
2022-07-25T01:56:35.991Z,7.00
2022-07-25T01:59:03.940Z,6.83
2022-07-25T02:01:31.946Z,7.00
2022-07-25T02:03:59.950Z,7.13
2022-07-25T02:06:27.874Z,7.83
2022-07-25T02:08:55.841Z,6.90
2022-07-25T02:11:23.772Z,6.90
2022-07-25T02:13:53.123Z,6.27
2022-07-25T02:16:21.128Z,7.00
2022-07-25T02:18:57.197Z,7.50
2022-07-25T02:21:25.983Z,6.97
2022-07-25T02:23:54.279Z,7.00
2022-07-25T02:26:22.365Z,7.03
2022-07-25T02:28:52.678Z,7.00
2022-07-25T02:31:20.700Z,6.80
2022-07-25T02:33:48.657Z,6.77
2022-07-25T02:36:16.722Z,7.10
2022-07-25T02:38:44.641Z,7.33
2022-07-25T02:41:12.637Z,6.80
2022-07-25T02:43:40.567Z,7.03
2022-07-25T02:46:09.996Z,7.80
2022-07-25T02:48:38.123Z,7.17
2022-07-25T02:51:06.212Z,7.27
2022-07-25T02:53:56.086Z,6.63
2022-07-25T02:56:22.065Z,7.40
2022-07-25T02:58:51.578Z,7.10
2022-07-25T03:01:20.876Z,7.10
2022-07-25T03:03:48.918Z,6.93
2022-07-25T03:06:17.048Z,7.57
2022-07-25T03:08:45.048Z,7.43
2022-07-25T03:11:13.189Z,7.40
2022-07-25T03:13:41.175Z,7.10
2022-07-25T03:16:09.793Z,8.33
2022-07-25T03:18:39.130Z,7.43
2022-07-25T03:21:07.945Z,7.33
2022-07-25T03:23:35.989Z,7.07
2022-07-25T03:26:03.947Z,7.57
2022-07-25T03:28:31.846Z,7.00
2022-07-25T03:30:59.804Z,7.63
2022-07-25T03:33:27.818Z,7.10
2022-07-25T03:35:57.445Z,6.90
2022-07-25T03:38:25.691Z,7.57
2022-07-25T03:40:53.619Z,6.93
2022-07-25T03:43:21.576Z,7.33
2022-07-25T03:45:49.487Z,7.23
2022-07-25T03:48:17.491Z,7.13
2022-07-25T03:50:45.399Z,7.73
2022-07-25T03:53:14.666Z,7.47
2022-07-25T03:55:42.610Z,7.40
2022-07-25T03:58:10.604Z,7.30
2022-07-25T04:00:38.632Z,7.43
2022-07-25T04:03:06.908Z,6.97
2022-07-25T04:05:34.943Z,7.37
2022-07-25T04:08:03.496Z,7.00
2022-07-25T04:10:34.393Z,7.33
2022-07-25T04:13:03.651Z,10.90
2022-07-25T04:15:31.540Z,9.17
2022-07-25T04:17:59.453Z,12.70
2022-07-25T04:20:27.343Z,7.83
2022-07-25T04:22:55.241Z,7.30
2022-07-25T04:25:23.437Z,7.50
2022-07-25T04:27:52.924Z,7.00
2022-07-25T04:30:24.110Z,7.70
2022-07-25T04:32:53.404Z,7.47
2022-07-25T04:35:21.507Z,7.13
2022-07-25T04:37:49.448Z,7.80
2022-07-25T04:40:17.459Z,7.27
2022-07-25T04:42:45.410Z,7.00
2022-07-25T04:45:17.706Z,21.37
2022-07-25T04:47:46.100Z,22.83
2022-07-25T04:50:14.544Z,10.90
2022-07-25T04:52:42.616Z,7.93
2022-07-25T04:55:11.128Z,8.37
2022-07-25T04:57:39.175Z,7.90
2022-07-25T05:00:09.333Z,7.87
2022-07-25T05:02:38.838Z,7.30
2022-07-25T05:05:08.504Z,8.40
2022-07-25T05:07:49.217Z,7.47
2022-07-25T05:10:17.412Z,13.13
2022-07-25T05:12:45.422Z,27.87
2022-07-25T05:15:13.757Z,13.50
2022-07-25T05:17:43.311Z,9.43
2022-07-25T05:20:12.888Z,8.20
2022-07-25T05:22:40.939Z,8.00
2022-07-25T05:25:10.837Z,8.83
2022-07-25T05:27:39.333Z,8.07
2022-07-25T05:30:09.880Z,7.63
2022-07-25T05:32:38.067Z,7.80
2022-07-25T05:35:09.184Z,8.03
2022-07-25T05:37:37.951Z,9.00
2022-07-25T05:40:07.358Z,7.57
2022-07-25T05:42:35.674Z,11.63
2022-07-25T05:45:03.652Z,19.87
2022-07-25T05:47:31.724Z,10.50
2022-07-25T05:49:59.668Z,7.90
2022-07-25T05:52:29.046Z,9.33
2022-07-25T05:54:56.919Z,8.80
2022-07-25T05:57:24.888Z,8.13
2022-07-25T05:59:52.842Z,8.17
2022-07-25T06:02:20.927Z,7.37
2022-07-25T06:04:49.001Z,7.83
2022-07-25T06:07:17.303Z,7.23
2022-07-25T06:09:46.764Z,7.40
2022-07-25T06:12:15.037Z,7.60
2022-07-25T06:14:43.741Z,7.90
2022-07-25T06:17:11.717Z,8.53
2022-07-25T06:19:39.661Z,7.60
2022-07-25T06:22:09.351Z,9.30
2022-07-25T06:24:37.362Z,8.07
2022-07-25T06:27:08.333Z,7.83
2022-07-25T06:29:36.249Z,7.57
2022-07-25T06:32:04.353Z,8.30
2022-07-25T06:34:32.336Z,7.20
2022-07-25T06:37:00.291Z,8.23
2022-07-25T06:39:28.643Z,8.07
2022-07-25T06:41:57.342Z,7.13
2022-07-25T06:44:27.251Z,8.47
2022-07-25T06:46:55.250Z,8.03
2022-07-25T06:49:23.248Z,8.93
2022-07-25T06:51:51.193Z,7.87
2022-07-25T06:54:19.148Z,7.60
2022-07-25T06:56:47.397Z,7.97
2022-07-25T06:59:15.430Z,7.43
2022-07-25T07:01:49.529Z,8.83
2022-07-25T07:04:19.393Z,7.40
2022-07-25T07:06:47.436Z,8.33
2022-07-25T07:09:15.451Z,7.53
2022-07-25T07:11:43.341Z,7.87
2022-07-25T07:14:11.315Z,8.00
2022-07-25T07:16:41.391Z,8.07
2022-07-25T07:19:12.021Z,8.40
2022-07-25T07:21:40.057Z,7.50
2022-07-25T07:24:23.447Z,7.07
2022-07-25T07:26:53.466Z,8.00
2022-07-25T07:29:21.514Z,7.57
2022-07-25T07:31:49.567Z,7.47
2022-07-25T07:34:19.188Z,7.60
2022-07-25T07:36:47.427Z,8.23
2022-07-25T07:39:16.468Z,6.93
2022-07-25T07:41:44.475Z,7.90
2022-07-25T07:44:12.716Z,7.20
2022-07-25T07:46:40.704Z,7.17
2022-07-25T07:49:09.215Z,8.27
2022-07-25T07:51:39.034Z,8.73
2022-07-25T07:54:24.953Z,7.87
2022-07-25T07:56:52.940Z,8.17
2022-07-25T07:59:20.896Z,7.80
2022-07-25T08:01:48.915Z,7.47
2022-07-25T08:04:17.023Z,7.23
2022-07-25T08:06:46.328Z,7.47
2022-07-25T08:09:14.306Z,8.17
2022-07-25T08:11:42.290Z,6.97
2022-07-25T08:14:10.544Z,6.97
2022-07-25T08:16:38.748Z,7.28
2022-07-25T08:19:06.813Z,7.22
2022-07-25T08:21:34.867Z,7.50
2022-07-25T08:24:04.754Z,6.65
2022-07-25T08:26:37.059Z,7.13
2022-07-25T08:29:18.741Z,7.20
2022-07-25T08:31:47.731Z,11.90
2022-07-25T08:34:15.899Z,7.78
2022-07-25T08:36:44.265Z,7.80
2022-07-25T08:39:15.834Z,7.10
2022-07-25T08:41:44.095Z,7.25
2022-07-25T08:44:14.186Z,7.10
2022-07-25T08:46:42.985Z,6.78
2022-07-25T08:49:11.234Z,7.00
2022-07-25T08:51:40.780Z,7.25
2022-07-25T08:54:09.525Z,6.45
2022-07-25T08:56:39.180Z,6.78
2022-07-25T08:59:07.150Z,6.72
2022-07-25T09:01:35.313Z,6.72
2022-07-25T09:04:05.040Z,6.82
2022-07-25T09:06:33.350Z,6.30
2022-07-25T09:09:04.667Z,6.82
2022-07-25T09:11:34.193Z,6.22
2022-07-25T09:14:07.364Z,6.82
2022-07-25T09:16:40.168Z,6.32
2022-07-25T09:19:11.637Z,6.43
2022-07-25T09:21:40.799Z,6.90
2022-07-25T09:24:10.922Z,6.63
2022-07-25T09:26:50.285Z,5.57
2022-07-25T09:29:25.734Z,6.13
2022-07-25T09:31:54.880Z,6.38
2022-07-25T09:34:37.718Z,5.70
2022-07-25T09:37:07.679Z,7.90
2022-07-25T09:39:40.799Z,6.28
2022-07-25T09:42:23.989Z,5.93
2022-07-25T09:45:07.199Z,5.70
2022-07-25T09:47:37.724Z,5.75
2022-07-25T09:50:07.141Z,5.45
2022-07-25T09:52:36.730Z,5.28
2022-07-25T09:55:06.661Z,6.28
2022-07-25T09:57:34.745Z,8.45
2022-07-25T10:00:06.853Z,6.53
2022-07-25T10:02:49.895Z,6.25
2022-07-25T10:05:26.578Z,5.72
2022-07-25T10:07:56.348Z,5.50
2022-07-25T10:10:29.351Z,6.13
2022-07-25T10:13:10.159Z,6.32
2022-07-25T10:15:48.227Z,6.03
2022-07-25T10:18:18.813Z,6.35
2022-07-25T10:20:48.688Z,6.07
2022-07-25T10:23:21.679Z,5.70
2022-07-25T10:26:01.095Z,6.13
2022-07-25T10:28:38.637Z,6.18
2022-07-25T10:31:25.527Z,6.70
2022-07-25T10:33:57.113Z,7.22
2022-07-25T10:36:26.442Z,6.57
2022-07-25T10:38:58.465Z,7.32
2022-07-25T10:41:28.279Z,6.78
2022-07-25T10:44:03.250Z,6.82
2022-07-25T10:46:36.519Z,7.10
2022-07-25T10:49:06.812Z,6.28
2022-07-25T10:51:41.137Z,6.97
2022-07-25T10:54:17.809Z,6.60
2022-07-25T10:56:55.235Z,6.75
2022-07-25T10:59:32.154Z,6.85
2022-07-25T11:02:02.284Z,7.05
2022-07-25T11:04:31.071Z,7.57
2022-07-25T11:06:59.486Z,7.20
2022-07-25T11:09:28.835Z,6.47
2022-07-25T11:11:59.175Z,6.72
2022-07-25T11:14:31.216Z,6.28
2022-07-25T11:16:59.644Z,6.60
2022-07-25T11:19:30.727Z,7.10
2022-07-25T11:22:00.281Z,6.53
2022-07-25T11:24:37.266Z,5.50
2022-07-25T11:27:11.303Z,7.13
2022-07-25T11:29:41.052Z,6.40
2022-07-25T11:32:11.047Z,7.10
2022-07-25T11:34:43.587Z,6.78
2022-07-25T11:37:14.465Z,6.90
2022-07-25T11:39:44.537Z,6.25
2022-07-25T11:42:16.185Z,6.70
2022-07-25T11:44:48.167Z,6.82
2022-07-25T11:47:29.089Z,6.75
2022-07-25T11:50:00.222Z,6.35
2022-07-25T11:52:30.923Z,6.10
2022-07-25T11:55:00.608Z,6.35
2022-07-25T11:57:29.897Z,6.35
2022-07-25T12:00:00.252Z,6.18
2022-07-25T12:02:31.171Z,6.90
2022-07-25T12:05:02.334Z,6.50
2022-07-25T12:07:44.653Z,6.22
2022-07-25T12:10:17.731Z,6.63
2022-07-25T12:12:50.340Z,6.25
2022-07-25T12:15:21.989Z,6.63
2022-07-25T12:17:51.083Z,6.32
2022-07-25T12:20:22.253Z,6.43
2022-07-25T12:22:51.675Z,6.45
2022-07-25T12:25:19.862Z,5.60
2022-07-25T12:27:48.417Z,5.90
2022-07-25T12:30:16.944Z,6.45
2022-07-25T12:32:45.088Z,6.20
2022-07-25T12:35:14.345Z,6.30
2022-07-25T12:37:44.373Z,6.18
2022-07-25T12:40:14.416Z,6.65
2022-07-25T12:42:43.160Z,6.32
2022-07-25T12:45:12.442Z,5.93
2022-07-25T12:47:40.682Z,5.80
2022-07-25T12:50:09.632Z,5.93
2022-07-25T12:52:38.771Z,5.57
2022-07-25T12:55:10.038Z,5.80
2022-07-25T12:57:38.577Z,5.68
2022-07-25T13:00:08.958Z,5.63
2022-07-25T13:02:37.102Z,5.40
2022-07-25T13:05:05.998Z,4.85
2022-07-25T13:07:34.220Z,5.45
2022-07-25T13:10:02.215Z,5.35
2022-07-25T13:12:31.639Z,5.57
2022-07-25T13:14:59.994Z,6.15
2022-07-25T13:17:28.183Z,5.57
2022-07-25T13:19:57.839Z,4.97
2022-07-25T13:22:26.671Z,4.97
2022-07-25T13:24:55.747Z,5.25
2022-07-25T13:27:24.681Z,5.25
2022-07-25T13:29:55.088Z,6.05
2022-07-25T13:32:24.010Z,5.05
2022-07-25T13:34:52.035Z,4.85
2022-07-25T13:37:20.214Z,5.28
2022-07-25T13:39:48.182Z,4.75
2022-07-25T13:42:16.147Z,5.03
2022-07-25T13:44:44.141Z,4.45
2022-07-25T13:47:13.601Z,5.20
2022-07-25T13:49:42.039Z,4.90
2022-07-25T13:52:10.087Z,4.63
2022-07-25T13:54:38.217Z,4.63
2022-07-25T13:57:06.321Z,4.22
2022-07-25T13:59:34.259Z,4.85
2022-07-25T14:02:02.297Z,4.60
2022-07-25T14:04:31.903Z,4.35
2022-07-25T14:07:00.979Z,4.53
2022-07-25T14:09:28.937Z,4.60
2022-07-25T14:11:56.907Z,4.75
2022-07-25T14:14:25.000Z,4.80
2022-07-25T14:16:53.063Z,4.93
2022-07-25T14:19:21.372Z,5.10
2022-07-25T14:21:50.625Z,4.85
2022-07-25T14:24:18.625Z,4.97
2022-07-25T14:26:46.616Z,5.35
2022-07-25T14:29:14.752Z,4.55
2022-07-25T14:31:42.802Z,5.22
2022-07-25T14:34:10.774Z,5.10
2022-07-25T14:36:38.842Z,5.03
2022-07-25T14:39:09.086Z,5.95
2022-07-25T14:41:37.341Z,5.72
2022-07-25T14:44:05.695Z,5.05
2022-07-25T14:46:33.700Z,5.75
2022-07-25T14:49:01.873Z,5.72
2022-07-25T14:51:30.587Z,6.47
2022-07-25T14:53:58.509Z,6.45
2022-07-25T14:56:27.838Z,6.43
2022-07-25T14:58:55.837Z,6.35
2022-07-25T15:01:25.378Z,6.35
2022-07-25T15:03:56.065Z,7.13
2022-07-25T15:06:28.781Z,6.40
2022-07-25T15:08:57.546Z,6.70
2022-07-25T15:11:27.005Z,5.88
2022-07-25T15:13:54.899Z,6.38
2022-07-25T15:16:23.326Z,7.15
2022-07-25T15:19:15.106Z,6.93
2022-07-25T15:21:39.571Z,6.88
2022-07-25T15:24:08.049Z,6.18
2022-07-25T15:26:37.924Z,6.63
2022-07-25T15:29:09.534Z,6.53
2022-07-25T15:31:38.205Z,7.30
2022-07-25T15:34:06.421Z,6.50
2022-07-25T15:36:34.424Z,6.45
2022-07-25T15:39:02.456Z,6.55
2022-07-25T15:41:31.174Z,7.30
2022-07-25T15:44:00.701Z,6.70
2022-07-25T15:46:29.007Z,6.25
2022-07-25T15:48:58.178Z,6.63
2022-07-25T15:51:26.226Z,6.07
2022-07-25T15:53:54.186Z,6.18
2022-07-25T15:56:22.281Z,6.43
2022-07-25T15:58:51.417Z,6.80
2022-07-25T16:01:20.849Z,6.22
2022-07-25T16:03:48.919Z,6.60
2022-07-25T16:06:20.569Z,7.85
2022-07-25T16:08:49.283Z,9.95
2022-07-25T16:11:17.331Z,6.90
2022-07-25T16:13:45.331Z,6.88
2022-07-25T16:16:13.502Z,6.82
2022-07-25T16:18:42.906Z,7.20
2022-07-25T16:21:10.926Z,5.88
2022-07-25T16:23:43.708Z,6.10
2022-07-25T16:26:13.663Z,6.30
2022-07-25T16:28:41.778Z,6.13
2022-07-25T16:31:10.203Z,6.55
2022-07-25T16:33:38.228Z,6.80
2022-07-25T16:36:08.509Z,6.00
2022-07-25T16:38:36.490Z,6.13
2022-07-25T16:41:04.530Z,6.10
2022-07-25T16:43:32.620Z,6.53
2022-07-25T16:46:02.086Z,5.93
2022-07-25T16:48:30.501Z,5.60
2022-07-25T16:50:58.612Z,6.40
2022-07-25T16:53:28.010Z,6.25
2022-07-25T16:55:56.178Z,6.40
2022-07-25T16:58:24.187Z,6.40
2022-07-25T17:00:52.311Z,5.95
2022-07-25T17:03:20.616Z,6.32
2022-07-25T17:05:51.529Z,6.05
2022-07-25T17:08:19.770Z,6.07
2022-07-25T17:10:49.085Z,6.57
2022-07-25T17:13:17.030Z,6.07
2022-07-25T17:15:45.550Z,6.28
2022-07-25T17:18:14.127Z,5.97
2022-07-25T17:20:42.242Z,5.90
2022-07-25T17:23:10.193Z,6.00
2022-07-25T17:25:38.285Z,5.80
2022-07-25T17:28:08.615Z,6.10
2022-07-25T17:30:36.580Z,6.40
2022-07-25T17:33:04.646Z,5.32
2022-07-25T17:35:32.848Z,5.70
2022-07-25T17:38:00.969Z,6.07
2022-07-25T17:40:29.007Z,5.53
2022-07-25T17:42:57.603Z,6.00
2022-07-25T17:45:27.447Z,6.07
2022-07-25T17:47:55.463Z,5.35
2022-07-25T17:50:29.230Z,4.25
2022-07-25T17:52:59.527Z,4.75
2022-07-25T17:55:28.733Z,4.60
2022-07-25T17:57:59.521Z,5.28
2022-07-25T18:00:29.186Z,4.80
2022-07-25T18:03:00.363Z,5.40
2022-07-25T18:05:28.696Z,4.85
2022-07-25T18:07:56.776Z,5.10
2022-07-25T18:10:25.225Z,4.65
2022-07-25T18:12:53.216Z,4.65
2022-07-25T18:15:21.586Z,4.35
2022-07-25T18:17:50.924Z,5.30
2022-07-25T18:20:18.918Z,7.10
2022-07-25T18:22:47.277Z,4.78
2022-07-25T18:25:15.558Z,4.15
2022-07-25T18:27:45.247Z,4.10
2022-07-25T18:30:14.640Z,4.63
2022-07-25T18:32:43.112Z,4.80
2022-07-25T18:35:13.148Z,3.85
2022-07-25T18:37:41.209Z,3.70
2022-07-25T18:40:10.676Z,4.00
2022-07-25T18:42:40.775Z,4.40
2022-07-25T18:45:09.887Z,4.45
2022-07-25T18:47:38.327Z,4.38
2022-07-25T18:50:07.339Z,4.07
2022-07-25T18:52:37.361Z,3.90
2022-07-25T18:55:06.735Z,4.30
2022-07-25T18:57:35.471Z,4.55
2022-07-25T19:00:04.404Z,4.68
2022-07-25T19:02:32.442Z,3.90
2022-07-25T19:07:29.773Z,4.00
2022-07-25T19:09:59.109Z,4.32
2022-07-25T19:12:27.323Z,4.07
2022-07-25T19:14:55.521Z,3.97
2022-07-25T19:17:24.462Z,3.75
2022-07-25T19:19:52.994Z,3.63
2022-07-25T19:22:21.073Z,3.85
2022-07-25T19:24:49.120Z,3.55
2022-07-25T19:27:19.352Z,3.75
2022-07-25T19:29:47.937Z,3.95
2022-07-25T19:32:17.122Z,3.25
2022-07-25T19:34:46.352Z,3.65
2022-07-25T19:37:14.360Z,3.05
2022-07-25T19:39:42.424Z,3.40
2022-07-25T19:42:12.142Z,3.05
2022-07-25T19:44:41.508Z,2.95
2022-07-25T19:47:11.895Z,3.30
2022-07-25T19:49:40.634Z,2.85
2022-07-25T19:52:09.669Z,3.05
2022-07-25T19:54:37.900Z,4.50
2022-07-25T19:57:05.964Z,4.60
2022-07-25T19:59:34.084Z,2.97
2022-07-25T20:02:04.003Z,3.20
2022-07-25T20:04:32.266Z,3.08
2022-07-25T20:07:02.230Z,2.95
2022-07-25T20:09:30.398Z,3.00
2022-07-25T20:11:58.775Z,3.10
2022-07-25T20:14:26.883Z,2.90
2022-07-25T20:16:54.959Z,3.20
2022-07-25T20:19:24.753Z,3.00
2022-07-25T20:21:52.876Z,2.83
2022-07-25T20:24:21.854Z,2.80
2022-07-25T20:26:50.183Z,2.83
2022-07-25T20:29:18.777Z,2.67
2022-07-25T20:31:46.886Z,2.75
2022-07-25T20:34:15.361Z,2.80
2022-07-25T20:36:44.756Z,2.60
2022-07-25T20:39:13.222Z,2.28
2022-07-25T20:41:41.350Z,2.40
2022-07-25T20:44:12.562Z,2.15
2022-07-25T20:46:40.589Z,2.40
2022-07-25T20:49:09.719Z,13.15
2022-07-25T20:51:40.243Z,3.28
2022-07-25T20:54:09.818Z,2.03
2022-07-25T20:56:37.758Z,1.95
2022-07-25T20:59:06.962Z,2.17
2022-07-25T21:01:35.361Z,2.10
2022-07-25T21:04:07.458Z,2.17
2022-07-25T21:06:36.989Z,2.17
2022-07-25T21:09:06.244Z,2.10
2022-07-25T21:11:36.196Z,2.08
2022-07-25T21:14:05.190Z,2.33
2022-07-25T21:16:34.209Z,2.10
2022-07-25T21:19:02.203Z,2.80
2022-07-25T21:21:30.300Z,2.20
2022-07-25T21:23:58.371Z,1.63
2022-07-25T21:26:26.644Z,1.73
2022-07-25T21:28:56.012Z,1.80
2022-07-25T21:31:24.056Z,1.92
2022-07-25T21:33:52.107Z,1.80
2022-07-25T21:36:20.039Z,1.90
2022-07-25T21:38:48.012Z,1.85
2022-07-25T21:41:16.279Z,1.90
2022-07-25T21:43:44.201Z,2.10
2022-07-25T21:46:13.842Z,1.90
2022-07-25T21:48:59.500Z,1.90
2022-07-25T21:51:36.798Z,1.90
2022-07-25T21:54:09.253Z,8.23
2022-07-25T21:56:37.334Z,2.78
2022-07-25T21:59:06.597Z,2.40
2022-07-25T22:01:36.449Z,2.10
2022-07-25T22:04:05.137Z,2.00
2022-07-25T22:06:33.195Z,1.90
2022-07-25T22:09:01.489Z,2.30
2022-07-25T22:11:42.846Z,2.42
2022-07-25T22:14:14.384Z,1.90
2022-07-25T22:16:43.880Z,2.10
2022-07-25T22:19:12.070Z,2.00
2022-07-25T22:21:40.729Z,1.47
2022-07-25T22:24:09.034Z,2.03
2022-07-25T22:26:37.182Z,1.93
2022-07-25T22:29:05.841Z,1.80
2022-07-25T22:31:34.215Z,2.10
2022-07-25T22:34:03.547Z,1.67
2022-07-25T22:36:31.651Z,1.83
2022-07-25T22:38:59.576Z,1.90
2022-07-25T22:41:27.753Z,1.90
2022-07-25T22:43:57.657Z,1.97
2022-07-25T22:46:27.765Z,1.67
2022-07-25T22:48:55.941Z,1.80
2022-07-25T22:51:25.445Z,1.87
2022-07-25T22:53:53.448Z,1.70
2022-07-25T22:59:13.750Z,2.20
2022-07-25T23:01:41.747Z,2.00
2022-07-25T23:04:11.111Z,2.20
2022-07-25T23:06:40.529Z,2.10
2022-07-25T23:09:08.864Z,1.87
2022-07-25T23:11:37.150Z,1.80
2022-07-25T23:14:05.153Z,1.80
2022-07-25T23:16:33.272Z,1.73
2022-07-25T23:19:01.250Z,1.60
2022-07-25T23:21:29.603Z,2.27
2022-07-25T23:24:00.097Z,1.83
2022-07-25T23:26:28.350Z,2.07
2022-07-25T23:28:56.443Z,2.17
2022-07-25T23:31:24.515Z,1.80
2022-07-25T23:33:52.486Z,1.87
2022-07-25T23:36:20.463Z,1.73
2022-07-25T23:38:48.418Z,1.77
2022-07-25T23:41:17.673Z,1.60
2022-07-25T23:43:56.163Z,1.73
2022-07-25T23:46:29.322Z,1.63
2022-07-25T23:49:00.262Z,2.20
2022-07-25T23:51:28.254Z,1.80
2022-07-25T23:53:56.201Z,1.90
2022-07-25T23:56:25.607Z,1.97
2022-07-25T23:58:53.615Z,1.90
